createdAt,value
2018-03-04T00:03:53.610Z,84.72
2018-03-04T00:06:22.530Z,84.22
2018-03-04T00:08:50.677Z,102.53
2018-03-04T00:11:19.594Z,101.12
2018-03-04T00:13:47.728Z,86.00
2018-03-04T00:16:17.488Z,91.07
2018-03-04T00:18:45.613Z,97.77
2018-03-04T00:21:14.564Z,94.93
2018-03-04T00:23:42.707Z,87.78
2018-03-04T00:26:10.809Z,93.45
2018-03-04T00:28:39.026Z,102.68
2018-03-04T00:31:07.962Z,89.82
2018-03-04T00:33:36.201Z,88.55
2018-03-04T00:36:04.375Z,96.72
2018-03-04T00:38:32.488Z,90.95
2018-03-04T00:41:00.708Z,96.35
2018-03-04T00:43:29.605Z,100.93
2018-03-04T00:45:58.610Z,108.82
2018-03-04T00:48:26.743Z,103.07
2018-03-04T00:50:55.662Z,102.85
2018-03-04T00:53:23.810Z,96.25
2018-03-04T00:55:51.928Z,106.97
2018-03-04T00:58:20.065Z,108.15
2018-03-04T01:00:48.974Z,113.25
2018-03-04T01:03:17.122Z,97.60
2018-03-04T01:05:45.248Z,97.03
2018-03-04T01:08:13.388Z,96.07
2018-03-04T01:10:41.506Z,105.12
2018-03-04T01:13:09.638Z,98.85
2018-03-04T01:15:41.320Z,92.32
2018-03-04T01:18:10.261Z,91.60
2018-03-04T01:20:38.424Z,104.87
2018-03-04T01:23:07.423Z,103.47
2018-03-04T01:25:35.573Z,89.50
2018-03-04T01:28:04.492Z,100.80
2018-03-04T01:30:33.367Z,103.45
2018-03-04T01:33:02.365Z,98.00
2018-03-04T01:35:30.506Z,105.35
2018-03-04T01:37:59.406Z,103.07
2018-03-04T01:40:28.417Z,107.05
2018-03-04T01:42:57.311Z,98.70
2018-03-04T01:45:25.465Z,107.37
2018-03-04T01:47:54.365Z,99.27
2018-03-04T01:50:22.531Z,99.60
2018-03-04T01:52:51.434Z,92.78
2018-03-04T01:55:19.559Z,88.05
2018-03-04T01:57:47.793Z,98.93
2018-03-04T02:00:16.767Z,97.97
2018-03-04T02:02:44.902Z,103.47
2018-03-04T02:05:13.047Z,114.22
2018-03-04T02:07:41.190Z,114.88
2018-03-04T02:10:09.408Z,112.65
2018-03-04T02:12:37.627Z,114.62
2018-03-04T02:15:06.602Z,113.07
2018-03-04T02:17:35.501Z,115.23
2018-03-04T02:20:03.643Z,106.47
2018-03-04T02:22:31.805Z,112.30
2018-03-04T02:24:59.976Z,106.57
2018-03-04T02:27:28.100Z,117.97
2018-03-04T02:29:56.244Z,106.97
2018-03-04T02:32:25.137Z,106.93
2018-03-04T02:34:54.024Z,92.32
2018-03-04T02:37:22.933Z,93.78
2018-03-04T02:39:51.090Z,89.90
2018-03-04T02:42:19.991Z,95.18
2018-03-04T02:44:48.979Z,96.45
2018-03-04T02:47:17.114Z,95.22
2018-03-04T02:49:45.232Z,97.65
2018-03-04T02:52:13.365Z,90.82
2018-03-04T02:54:41.556Z,91.70
2018-03-04T02:57:10.454Z,89.07
2018-03-04T02:59:39.383Z,94.60
2018-03-04T03:02:07.522Z,91.35
2018-03-04T03:04:36.493Z,95.30
2018-03-04T03:07:05.407Z,90.07
2018-03-04T03:09:34.290Z,100.00
2018-03-04T03:12:03.193Z,95.55
2018-03-04T03:14:31.312Z,98.55
2018-03-04T03:16:59.531Z,94.05
2018-03-04T03:19:27.653Z,88.07
2018-03-04T03:21:55.788Z,103.45
2018-03-04T03:24:23.920Z,98.95
2018-03-04T03:26:52.820Z,105.20
2018-03-04T03:29:20.967Z,93.43
2018-03-04T03:31:49.106Z,103.32
2018-03-04T03:34:17.223Z,104.20
2018-03-04T03:36:46.124Z,92.93
2018-03-04T03:39:15.797Z,91.40
2018-03-04T03:41:43.999Z,88.20
2018-03-04T03:44:12.900Z,94.72
2018-03-04T03:46:41.022Z,103.07
2018-03-04T03:49:09.173Z,100.77
2018-03-04T03:51:37.397Z,96.97
2018-03-04T03:54:06.296Z,94.40
2018-03-04T03:56:35.202Z,112.57
2018-03-04T03:59:03.322Z,95.38
2018-03-04T04:01:31.452Z,87.60
2018-03-04T04:03:59.585Z,96.73
2018-03-04T04:06:27.725Z,86.55
2018-03-04T04:08:55.851Z,92.50
2018-03-04T04:11:23.969Z,85.68
2018-03-04T04:13:52.183Z,94.13
2018-03-04T04:16:20.277Z,97.45
2018-03-04T04:18:48.414Z,95.95
2018-03-04T04:21:17.298Z,89.45
2018-03-04T04:23:45.425Z,85.65
2018-03-04T04:26:13.550Z,88.03
2018-03-04T04:28:42.449Z,91.70
2018-03-04T04:31:11.330Z,85.57
2018-03-04T04:33:40.259Z,81.53
2018-03-04T04:36:08.380Z,86.03
2018-03-04T04:38:37.277Z,93.05
2018-03-04T04:41:05.456Z,94.70
2018-03-04T04:43:34.339Z,83.53
2018-03-04T04:46:03.266Z,85.18
2018-03-04T04:48:31.402Z,94.90
2018-03-04T04:50:59.517Z,88.18
2018-03-04T04:53:27.757Z,90.45
2018-03-04T04:55:55.937Z,93.78
2018-03-04T04:58:24.053Z,82.32
2018-03-04T05:00:52.168Z,88.05
2018-03-04T05:03:21.064Z,75.30
2018-03-04T05:05:49.218Z,83.00
2018-03-04T05:08:18.208Z,71.68
2018-03-04T05:10:47.190Z,82.55
2018-03-04T05:13:15.318Z,78.90
2018-03-04T05:15:43.437Z,80.28
2018-03-04T05:18:12.360Z,79.43
2018-03-04T05:20:40.488Z,78.00
2018-03-04T05:23:08.626Z,77.85
2018-03-04T05:25:37.037Z,84.13
2018-03-04T05:28:05.177Z,79.30
2018-03-04T05:30:33.300Z,84.55
2018-03-04T05:33:02.193Z,82.45
2018-03-04T05:35:31.176Z,92.43
2018-03-04T05:38:00.176Z,78.62
2018-03-04T05:40:29.078Z,77.95
2018-03-04T05:42:57.192Z,95.95
2018-03-04T05:45:25.362Z,80.07
2018-03-04T05:47:53.499Z,81.53
2018-03-04T05:50:21.629Z,77.28
2018-03-04T05:52:49.769Z,86.43
2018-03-04T05:55:17.897Z,76.95
2018-03-04T05:57:46.796Z,74.65
2018-03-04T06:00:14.949Z,81.32
2018-03-04T06:02:43.845Z,87.70
2018-03-04T06:05:12.733Z,85.18
2018-03-04T06:07:41.643Z,81.50
2018-03-04T06:10:09.914Z,78.22
2018-03-04T06:12:38.919Z,85.25
2018-03-04T06:15:07.054Z,82.07
2018-03-04T06:17:35.947Z,94.73
2018-03-04T06:20:04.094Z,81.00
2018-03-04T06:22:32.205Z,80.50
2018-03-04T06:25:00.347Z,83.68
2018-03-04T06:27:28.475Z,77.18
2018-03-04T06:29:56.657Z,83.18
2018-03-04T06:32:24.781Z,74.43
2018-03-04T06:34:53.668Z,80.05
2018-03-04T06:37:21.806Z,78.57
2018-03-04T06:39:50.038Z,76.70
2018-03-04T06:42:18.932Z,82.80
2018-03-04T06:44:47.061Z,90.40
2018-03-04T06:47:15.992Z,74.17
2018-03-04T06:49:44.107Z,77.75
2018-03-04T06:52:12.440Z,86.93
2018-03-04T06:54:40.596Z,80.55
2018-03-04T06:57:08.724Z,101.80
2018-03-04T06:59:36.852Z,86.70
2018-03-04T07:02:05.009Z,81.57
2018-03-04T07:04:33.905Z,85.43
2018-03-04T07:07:02.062Z,81.60
2018-03-04T07:09:30.936Z,82.25
2018-03-04T07:11:59.969Z,90.15
2018-03-04T07:14:28.100Z,83.20
2018-03-04T07:16:57.142Z,85.12
2018-03-04T07:19:25.282Z,84.50
2018-03-04T07:21:54.182Z,79.32
2018-03-04T07:24:22.313Z,81.78
2018-03-04T07:26:51.220Z,78.05
2018-03-04T07:29:20.153Z,86.22
2018-03-04T07:31:48.308Z,84.30
2018-03-04T07:34:16.423Z,87.87
2018-03-04T07:36:44.586Z,78.60
2018-03-04T07:39:12.714Z,77.62
2018-03-04T07:41:40.859Z,77.25
2018-03-04T07:44:09.758Z,74.45
2018-03-04T07:46:38.769Z,70.70
2018-03-04T07:49:07.051Z,67.53
2018-03-04T07:51:35.164Z,71.65
2018-03-04T07:54:03.305Z,76.07
2018-03-04T07:56:31.538Z,74.03
2018-03-04T07:59:00.468Z,73.60
2018-03-04T08:01:28.586Z,70.15
2018-03-04T08:03:56.729Z,71.03
2018-03-04T08:06:24.876Z,70.85
2018-03-04T08:08:53.030Z,54.85
2018-03-04T08:11:21.151Z,62.70
2018-03-04T08:13:49.316Z,53.28
2018-03-04T08:16:17.444Z,55.63
2018-03-04T08:18:45.569Z,55.00
2018-03-04T08:21:13.703Z,51.85
2018-03-04T08:23:41.828Z,52.75
2018-03-04T08:26:22.697Z,52.83
2018-03-04T08:28:51.602Z,48.72
2018-03-04T08:31:20.501Z,56.85
2018-03-04T08:33:48.666Z,48.33
2018-03-04T08:36:17.577Z,54.38
2018-03-04T08:38:45.708Z,59.58
2018-03-04T08:41:13.859Z,52.35
2018-03-04T08:43:42.117Z,40.53
2018-03-04T08:46:10.277Z,46.00
2018-03-04T08:48:38.419Z,51.87
2018-03-04T08:51:07.318Z,45.38
2018-03-04T08:53:35.474Z,38.40
2018-03-04T08:56:04.426Z,38.45
2018-03-04T08:58:32.556Z,38.00
2018-03-04T09:01:00.747Z,36.28
2018-03-04T09:03:28.879Z,36.58
2018-03-04T09:05:57.870Z,37.42
2018-03-04T09:08:26.814Z,36.83
2018-03-04T09:10:54.978Z,33.83
2018-03-04T09:13:23.124Z,37.78
2018-03-04T09:15:51.253Z,38.40
2018-03-04T09:18:19.433Z,38.60
2018-03-04T09:20:47.568Z,41.50
2018-03-04T09:23:15.737Z,36.47
2018-03-04T09:25:43.898Z,36.45
2018-03-04T09:28:12.050Z,36.60
2018-03-04T09:30:40.196Z,40.65
2018-03-04T09:33:08.352Z,39.73
2018-03-04T09:35:37.334Z,39.85
2018-03-04T09:38:05.851Z,40.92
2018-03-04T09:40:34.012Z,32.67
2018-03-04T09:43:02.183Z,37.53
2018-03-04T09:45:30.422Z,37.35
2018-03-04T09:47:59.274Z,32.47
2018-03-04T09:50:27.405Z,35.90
2018-03-04T09:52:55.537Z,39.05
2018-03-04T09:55:23.723Z,31.55
2018-03-04T09:57:51.893Z,30.15
2018-03-04T10:00:20.031Z,31.12
2018-03-04T10:02:48.193Z,39.90
2018-03-04T10:05:16.336Z,38.97
2018-03-04T10:07:44.539Z,38.05
2018-03-04T10:10:12.803Z,37.78
2018-03-04T10:12:40.960Z,36.78
2018-03-04T10:15:09.124Z,34.22
2018-03-04T10:17:38.091Z,34.07
2018-03-04T10:20:06.225Z,36.55
2018-03-04T10:22:34.380Z,34.55
2018-03-04T10:25:02.589Z,39.25
2018-03-04T10:27:30.727Z,40.25
2018-03-04T10:29:58.852Z,40.90
2018-03-04T10:32:26.992Z,41.28
2018-03-04T10:34:55.131Z,42.70
2018-03-04T10:37:23.411Z,42.25
2018-03-04T10:39:51.532Z,41.45
2018-03-04T10:42:21.278Z,42.10
2018-03-04T10:44:49.422Z,42.65
2018-03-04T10:47:18.330Z,37.83
2018-03-04T10:49:46.479Z,35.42
2018-03-04T10:52:15.370Z,36.85
2018-03-04T10:54:44.310Z,37.58
2018-03-04T10:57:12.450Z,32.40
2018-03-04T10:59:41.375Z,40.00
2018-03-04T11:02:15.202Z,37.00
2018-03-04T11:04:43.388Z,39.75
2018-03-04T11:07:11.553Z,32.90
2018-03-04T11:09:39.728Z,31.27
2018-03-04T11:12:07.859Z,34.25
2018-03-04T11:14:36.096Z,29.63
2018-03-04T11:17:05.123Z,26.15
2018-03-04T11:19:33.243Z,31.48
2018-03-04T11:22:01.468Z,27.83
2018-03-04T11:24:29.596Z,31.10
2018-03-04T11:26:58.502Z,28.17
2018-03-04T11:29:27.415Z,27.42
2018-03-04T11:31:55.564Z,32.13
2018-03-04T11:34:23.742Z,30.33
2018-03-04T11:36:52.645Z,32.72
2018-03-04T11:39:20.902Z,27.30
2018-03-04T11:41:49.094Z,30.02
2018-03-04T11:44:17.248Z,26.10
2018-03-04T11:46:45.391Z,27.92
2018-03-04T11:49:13.534Z,24.80
2018-03-04T11:51:41.698Z,21.37
2018-03-04T11:54:09.829Z,21.58
2018-03-04T11:56:37.994Z,23.35
2018-03-04T11:59:06.924Z,24.02
2018-03-04T12:01:35.086Z,26.10
2018-03-04T12:04:03.239Z,22.03
2018-03-04T12:06:31.455Z,26.52
2018-03-04T12:08:59.834Z,26.60
2018-03-04T12:11:28.012Z,31.40
2018-03-04T12:13:56.273Z,34.03
2018-03-04T12:16:24.438Z,31.33
2018-03-04T12:18:52.596Z,29.60
2018-03-04T12:21:20.766Z,35.57
2018-03-04T12:23:48.931Z,21.30
2018-03-04T12:26:17.066Z,30.47
2018-03-04T12:28:45.998Z,33.17
2018-03-04T12:31:14.199Z,31.83
2018-03-04T12:33:42.350Z,28.70
2018-03-04T12:36:10.527Z,31.23
2018-03-04T12:38:38.680Z,29.07
2018-03-04T12:41:06.919Z,26.97
2018-03-04T12:43:35.050Z,29.10
2018-03-04T12:46:03.198Z,26.90
2018-03-04T12:48:31.394Z,23.13
2018-03-04T12:50:59.544Z,28.03
2018-03-04T12:53:28.223Z,24.37
2018-03-04T12:55:57.128Z,24.23
2018-03-04T12:58:25.413Z,21.73
2018-03-04T13:00:53.559Z,19.83
2018-03-04T13:03:22.462Z,22.03
2018-03-04T13:05:50.650Z,24.53
2018-03-04T13:08:18.838Z,23.93
2018-03-04T13:10:47.727Z,23.80
2018-03-04T13:13:15.878Z,25.13
2018-03-04T13:15:44.112Z,25.53
2018-03-04T13:18:12.288Z,25.23
2018-03-04T13:20:41.228Z,25.50
2018-03-04T13:23:09.432Z,25.00
2018-03-04T13:25:39.391Z,30.77
2018-03-04T13:28:08.332Z,20.60
2018-03-04T13:30:36.514Z,28.37
2018-03-04T13:33:05.500Z,16.83
2018-03-04T13:35:35.805Z,25.60
2018-03-04T13:38:04.087Z,27.83
2018-03-04T13:40:32.237Z,21.03
2018-03-04T13:43:00.493Z,21.00
2018-03-04T13:45:28.707Z,21.80
2018-03-04T13:47:56.852Z,19.83
2018-03-04T13:50:25.027Z,21.87
2018-03-04T13:52:54.343Z,23.40
2018-03-04T13:55:22.534Z,19.60
2018-03-04T13:57:50.659Z,21.77
2018-03-04T14:00:18.839Z,18.07
2018-03-04T14:02:47.006Z,15.97
2018-03-04T14:05:15.243Z,20.00
2018-03-04T14:07:44.211Z,18.70
2018-03-04T14:10:12.384Z,20.23
2018-03-04T14:12:40.641Z,15.80
2018-03-04T14:15:08.768Z,15.37
2018-03-04T14:17:37.685Z,16.47
2018-03-04T14:20:05.866Z,18.57
2018-03-04T14:22:34.020Z,15.27
2018-03-04T14:25:02.285Z,16.23
2018-03-04T14:27:30.434Z,14.97
2018-03-04T14:29:59.479Z,16.60
2018-03-04T14:32:27.632Z,17.50
2018-03-04T14:34:55.780Z,18.43
2018-03-04T14:37:23.970Z,13.70
2018-03-04T14:39:52.115Z,16.80
2018-03-04T14:42:20.282Z,21.33
2018-03-04T14:44:48.418Z,17.60
2018-03-04T14:47:16.603Z,17.80
2018-03-04T14:49:44.841Z,19.43
2018-03-04T14:52:13.836Z,17.00
2018-03-04T14:54:42.063Z,18.97
2018-03-04T14:57:10.288Z,18.27
2018-03-04T14:59:38.475Z,21.23
2018-03-04T15:02:06.630Z,18.27
2018-03-04T15:04:34.907Z,21.00
2018-03-04T15:07:03.016Z,19.03
2018-03-04T15:09:31.183Z,18.17
2018-03-04T15:11:59.360Z,19.00
2018-03-04T15:14:29.054Z,17.40
2018-03-04T15:16:57.235Z,18.47
2018-03-04T15:19:25.418Z,20.63
2018-03-04T15:21:53.592Z,18.83
2018-03-04T15:24:21.743Z,18.30
2018-03-04T15:26:49.933Z,20.63
2018-03-04T15:29:18.171Z,18.70
2018-03-04T15:31:46.363Z,23.13
2018-03-04T15:34:14.507Z,22.60
2018-03-04T15:36:42.633Z,18.30
2018-03-04T15:39:10.804Z,21.47
2018-03-04T15:41:38.967Z,17.43
2018-03-04T15:44:07.151Z,17.07
2018-03-04T15:46:35.373Z,17.60
2018-03-04T15:49:03.598Z,19.77
2018-03-04T15:51:31.751Z,19.70
2018-03-04T15:53:59.890Z,17.23
2018-03-04T15:56:28.058Z,14.47
2018-03-04T15:58:56.251Z,16.70
2018-03-04T16:01:24.431Z,16.23
2018-03-04T16:03:52.569Z,13.97
2018-03-04T16:06:20.759Z,13.90
2018-03-04T16:08:48.949Z,16.00
2018-03-04T16:11:17.096Z,15.23
2018-03-04T16:13:45.375Z,15.10
2018-03-04T16:16:13.546Z,18.53
2018-03-04T16:18:41.721Z,13.90
2018-03-04T16:21:09.924Z,14.70
2018-03-04T16:23:38.132Z,16.10
2018-03-04T16:26:07.080Z,16.67
2018-03-04T16:28:35.248Z,15.30
2018-03-04T16:31:03.444Z,20.60
2018-03-04T16:33:31.597Z,21.73
2018-03-04T16:35:59.839Z,27.30
2018-03-04T16:38:28.054Z,22.33
2018-03-04T16:40:56.206Z,24.20
2018-03-04T16:43:24.389Z,26.85
2018-03-04T16:45:52.524Z,24.42
2018-03-04T16:48:20.832Z,27.43
2018-03-04T16:50:49.100Z,23.98
2018-03-04T16:53:17.375Z,21.85
2018-03-04T16:55:45.502Z,22.62
2018-03-04T16:58:14.458Z,23.00
2018-03-04T17:00:42.643Z,21.77
2018-03-04T17:03:11.604Z,27.60
2018-03-04T17:05:41.635Z,24.42
2018-03-04T17:08:09.761Z,26.75
2018-03-04T17:10:37.950Z,28.58
2018-03-04T17:13:06.100Z,25.35
2018-03-04T17:15:35.036Z,25.52
2018-03-04T17:18:03.211Z,29.17
2018-03-04T17:20:31.394Z,27.30
2018-03-04T17:22:59.640Z,23.00
2018-03-04T17:25:27.768Z,22.55
2018-03-04T17:27:55.979Z,19.67
2018-03-04T17:30:24.137Z,25.50
2018-03-04T17:32:53.075Z,24.12
2018-03-04T17:35:21.201Z,24.37
2018-03-04T17:37:49.355Z,22.35
2018-03-04T17:40:18.374Z,24.17
2018-03-04T17:42:46.531Z,25.27
2018-03-04T17:45:14.713Z,23.65
2018-03-04T17:47:42.925Z,29.07
2018-03-04T17:50:11.105Z,24.58
2018-03-04T17:52:39.271Z,24.67
2018-03-04T17:55:07.457Z,25.17
2018-03-04T17:57:35.614Z,28.87
2018-03-04T18:00:03.781Z,25.90
2018-03-04T18:02:32.780Z,26.37
2018-03-04T18:05:00.984Z,26.95
2018-03-04T18:07:29.150Z,29.70
2018-03-04T18:09:57.331Z,27.62
2018-03-04T18:12:26.257Z,25.20
2018-03-04T18:14:54.409Z,24.40
2018-03-04T18:17:22.600Z,28.75
2018-03-04T18:19:50.754Z,29.02
2018-03-04T18:22:19.705Z,26.65
2018-03-04T18:24:47.883Z,31.30
2018-03-04T18:27:16.050Z,28.30
2018-03-04T18:29:44.307Z,32.95
2018-03-04T18:32:12.463Z,29.00
2018-03-04T18:34:40.638Z,34.60
2018-03-04T18:37:08.770Z,35.10
2018-03-04T18:39:36.957Z,32.35
2018-03-04T18:42:05.141Z,32.28
2018-03-04T18:44:33.288Z,33.22
2018-03-04T18:47:02.262Z,33.40
2018-03-04T18:49:31.196Z,33.08
2018-03-04T18:51:59.880Z,36.75
2018-03-04T18:54:28.014Z,36.15
2018-03-04T18:56:58.024Z,43.75
2018-03-04T18:59:26.952Z,38.08
2018-03-04T19:01:56.287Z,37.70
2018-03-04T19:04:24.423Z,39.67
2018-03-04T19:06:52.591Z,39.55
2018-03-04T19:09:20.886Z,36.15
2018-03-04T19:11:49.027Z,38.03
2018-03-04T19:14:17.240Z,39.33
2018-03-04T19:16:45.412Z,38.25
2018-03-04T19:19:13.602Z,40.70
2018-03-04T19:21:41.745Z,40.40
2018-03-04T19:24:09.929Z,37.60
2018-03-04T19:26:38.104Z,34.13
2018-03-04T19:29:06.276Z,42.65
2018-03-04T19:31:34.459Z,36.25
2018-03-04T19:34:02.617Z,37.85
2018-03-04T19:36:30.821Z,40.30
2018-03-04T19:38:58.966Z,44.30
2018-03-04T19:41:27.125Z,37.80
2018-03-04T19:43:55.397Z,39.00
2018-03-04T19:46:23.556Z,40.20
2018-03-04T19:48:51.720Z,39.83
2018-03-04T19:51:19.888Z,38.58
2018-03-04T19:53:48.081Z,39.65
2018-03-04T19:56:16.467Z,44.33
2018-03-04T19:58:44.648Z,46.85
2018-03-04T20:01:12.798Z,46.95
2018-03-04T20:03:41.009Z,45.90
2018-03-04T20:06:09.348Z,43.90
2018-03-04T20:08:37.752Z,48.67
2018-03-04T20:11:05.972Z,43.90
2018-03-04T20:13:34.887Z,42.22
2018-03-04T20:16:03.074Z,44.50
2018-03-04T20:18:31.255Z,43.17
2018-03-04T20:20:59.435Z,56.95
2018-03-04T20:23:27.800Z,55.88
2018-03-04T20:25:55.942Z,49.85
2018-03-04T20:28:24.106Z,49.92
2018-03-04T20:30:53.025Z,51.50
2018-03-04T20:33:21.220Z,52.57
2018-03-04T20:35:49.367Z,56.03
2018-03-04T20:38:17.547Z,51.20
2018-03-04T20:40:46.137Z,49.80
2018-03-04T20:43:14.408Z,46.55
2018-03-04T20:45:42.651Z,58.40
2018-03-04T20:48:10.795Z,52.23
2018-03-04T20:50:39.762Z,52.13
2018-03-04T20:53:07.918Z,55.58
2018-03-04T20:55:36.178Z,50.15
2018-03-04T20:58:04.338Z,48.47
2018-03-04T21:00:32.571Z,54.85
2018-03-04T21:03:01.499Z,48.60
2018-03-04T21:05:29.640Z,52.58
2018-03-04T21:07:58.564Z,49.95
2018-03-04T21:10:26.710Z,54.72
2018-03-04T21:12:55.712Z,62.17
2018-03-04T21:15:24.680Z,70.18
2018-03-04T21:17:52.987Z,66.63
2018-03-04T21:20:21.159Z,59.22
2018-03-04T21:22:49.332Z,54.92
2018-03-04T21:25:17.525Z,59.72
2018-03-04T21:27:45.668Z,64.30
2018-03-04T21:30:13.820Z,60.08
2018-03-04T21:32:42.751Z,58.10
2018-03-04T21:35:10.902Z,59.65
2018-03-04T21:37:39.041Z,55.47
2018-03-04T21:40:08.103Z,57.65
2018-03-04T21:42:36.243Z,55.22
2018-03-04T21:45:04.491Z,58.92
2018-03-04T21:47:33.391Z,58.83
2018-03-04T21:50:01.570Z,65.53
2018-03-04T21:52:30.582Z,63.47
2018-03-04T21:54:58.714Z,60.83
2018-03-04T21:57:27.627Z,64.87
2018-03-04T21:59:55.764Z,56.35
2018-03-04T22:02:25.424Z,67.70
2018-03-04T22:04:53.556Z,65.15
2018-03-04T22:07:22.491Z,72.53
2018-03-04T22:09:50.642Z,80.65
2018-03-04T22:12:18.799Z,66.07
2018-03-04T22:14:47.705Z,71.32
2018-03-04T22:17:15.951Z,63.20
2018-03-04T22:19:44.911Z,63.95
2018-03-04T22:22:13.071Z,68.62
2018-03-04T22:24:41.215Z,63.13
2018-03-04T22:27:09.386Z,63.67
2018-03-04T22:29:37.558Z,63.63
2018-03-04T22:32:06.194Z,64.90
2018-03-04T22:34:34.333Z,64.60
2018-03-04T22:37:02.493Z,62.40
2018-03-04T22:39:30.633Z,70.68
2018-03-04T22:41:59.554Z,67.18
2018-03-04T22:44:27.701Z,67.60
2018-03-04T22:46:56.083Z,64.68
2018-03-04T22:49:24.245Z,60.40
2018-03-04T22:51:53.326Z,60.50
2018-03-04T22:54:22.331Z,63.10
2018-03-04T22:56:51.237Z,58.80
2018-03-04T22:59:19.398Z,54.25
2018-03-04T23:01:47.564Z,54.42
2018-03-04T23:04:16.466Z,59.57
2018-03-04T23:06:44.658Z,56.30
2018-03-04T23:09:12.814Z,57.95
2018-03-04T23:11:40.953Z,55.30
2018-03-04T23:14:09.273Z,62.20
2018-03-04T23:16:38.185Z,65.93
2018-03-04T23:19:06.342Z,50.97
2018-03-04T23:21:34.586Z,54.72
2018-03-04T23:24:03.490Z,57.90
2018-03-04T23:26:31.647Z,58.33
2018-03-04T23:29:00.542Z,61.13
2018-03-04T23:31:29.425Z,59.20
2018-03-04T23:33:58.326Z,59.30
2018-03-04T23:36:27.198Z,62.47
2018-03-04T23:38:56.088Z,57.97
2018-03-04T23:41:24.996Z,52.13
2018-03-04T23:43:53.133Z,58.65
2018-03-04T23:46:21.310Z,60.65
2018-03-04T23:48:49.441Z,60.07
2018-03-04T23:51:17.587Z,54.80
2018-03-04T23:53:45.713Z,57.40
2018-03-04T23:56:13.858Z,58.95
2018-03-04T23:58:42.023Z,54.35
